sensor_id;sensor_type;location;lat;lon;timestamp;temperature;humidity
22035;DHT22;11181;51.002;4.356;2023-08-01T00:00:46;18.20;99.90
22035;DHT22;11181;51.002;4.356;2023-08-01T00:03:13;18.20;99.90
22035;DHT22;11181;51.002;4.356;2023-08-01T00:05:40;18.20;99.90
22035;DHT22;11181;51.002;4.356;2023-08-01T00:08:10;18.20;99.90
22035;DHT22;11181;51.002;4.356;2023-08-01T00:10:38;18.20;99.90
22035;DHT22;11181;51.002;4.356;2023-08-01T00:13:07;18.20;99.90
22035;DHT22;11181;51.002;4.356;2023-08-01T00:15:34;18.30;99.90
22035;DHT22;11181;51.002;4.356;2023-08-01T00:18:01;18.30;99.90
22035;DHT22;11181;51.002;4.356;2023-08-01T00:20:28;18.40;99.90
22035;DHT22;11181;51.002;4.356;2023-08-01T00:22:55;18.40;99.90
22035;DHT22;11181;51.002;4.356;2023-08-01T00:25:21;18.40;99.90
22035;DHT22;11181;51.002;4.356;2023-08-01T00:27:48;18.40;99.90
22035;DHT22;11181;51.002;4.356;2023-08-01T00:30:18;18.40;99.90
22035;DHT22;11181;51.002;4.356;2023-08-01T00:32:45;18.30;99.90
22035;DHT22;11181;51.002;4.356;2023-08-01T00:35:11;18.20;99.90
22035;DHT22;11181;51.002;4.356;2023-08-01T00:37:38;18.20;99.90
22035;DHT22;11181;51.002;4.356;2023-08-01T00:40:06;18.10;99.90
22035;DHT22;11181;51.002;4.356;2023-08-01T00:42:36;18.00;99.90
22035;DHT22;11181;51.002;4.356;2023-08-01T00:45:03;18.00;99.90
22035;DHT22;11181;51.002;4.356;2023-08-01T00:47:32;18.00;99.90
22035;DHT22;11181;51.002;4.356;2023-08-01T00:49:59;18.00;99.90
22035;DHT22;11181;51.002;4.356;2023-08-01T00:52:26;18.00;99.90
22035;DHT22;11181;51.002;4.356;2023-08-01T00:54:54;18.00;99.90
22035;DHT22;11181;51.002;4.356;2023-08-01T00:57:21;18.10;99.90
22035;DHT22;11181;51.002;4.356;2023-08-01T00:59:48;18.00;99.90
22035;DHT22;11181;51.002;4.356;2023-08-01T01:02:15;18.00;99.90
22035;DHT22;11181;51.002;4.356;2023-08-01T01:04:43;18.00;99.90
22035;DHT22;11181;51.002;4.356;2023-08-01T01:07:11;18.00;99.90
22035;DHT22;11181;51.002;4.356;2023-08-01T01:09:38;18.00;99.90
22035;DHT22;11181;51.002;4.356;2023-08-01T01:12:06;18.00;99.90
22035;DHT22;11181;51.002;4.356;2023-08-01T01:14:33;18.00;99.90
22035;DHT22;11181;51.002;4.356;2023-08-01T01:17:00;18.00;99.90
22035;DHT22;11181;51.002;4.356;2023-08-01T01:19:26;18.00;99.90
22035;DHT22;11181;51.002;4.356;2023-08-01T01:21:55;18.00;99.90
22035;DHT22;11181;51.002;4.356;2023-08-01T01:24:23;18.00;99.90
22035;DHT22;11181;51.002;4.356;2023-08-01T01:26:50;18.00;99.90
22035;DHT22;11181;51.002;4.356;2023-08-01T01:29:18;18.00;99.90
22035;DHT22;11181;51.002;4.356;2023-08-01T01:31:46;18.00;99.90
22035;DHT22;11181;51.002;4.356;2023-08-01T01:34:14;17.90;99.90
22035;DHT22;11181;51.002;4.356;2023-08-01T01:36:41;17.80;99.90
22035;DHT22;11181;51.002;4.356;2023-08-01T01:39:09;17.70;99.90
22035;DHT22;11181;51.002;4.356;2023-08-01T01:41:36;17.70;99.90
22035;DHT22;11181;51.002;4.356;2023-08-01T01:44:03;17.80;99.90
22035;DHT22;11181;51.002;4.356;2023-08-01T01:46:30;17.90;99.90
22035;DHT22;11181;51.002;4.356;2023-08-01T01:48:57;17.90;99.90
22035;DHT22;11181;51.002;4.356;2023-08-01T01:51:25;17.90;99.90
22035;DHT22;11181;51.002;4.356;2023-08-01T01:53:52;18.00;99.90
22035;DHT22;11181;51.002;4.356;2023-08-01T01:56:21;18.00;99.90
22035;DHT22;11181;51.002;4.356;2023-08-01T01:58:47;18.00;99.90
22035;DHT22;11181;51.002;4.356;2023-08-01T02:01:14;18.00;99.90
22035;DHT22;11181;51.002;4.356;2023-08-01T02:03:41;17.90;99.90
22035;DHT22;11181;51.002;4.356;2023-08-01T02:06:08;17.90;99.90
22035;DHT22;11181;51.002;4.356;2023-08-01T02:08:35;17.80;99.90
22035;DHT22;11181;51.002;4.356;2023-08-01T02:11:02;17.80;99.90
22035;DHT22;11181;51.002;4.356;2023-08-01T02:13:32;17.80;99.90
22035;DHT22;11181;51.002;4.356;2023-08-01T02:15:59;17.80;99.90
22035;DHT22;11181;51.002;4.356;2023-08-01T02:18:25;17.80;99.90
22035;DHT22;11181;51.002;4.356;2023-08-01T02:20:52;17.80;99.90
22035;DHT22;11181;51.002;4.356;2023-08-01T02:23:19;17.80;99.90
22035;DHT22;11181;51.002;4.356;2023-08-01T02:25:46;17.70;99.90
22035;DHT22;11181;51.002;4.356;2023-08-01T02:28:13;17.60;99.90
22035;DHT22;11181;51.002;4.356;2023-08-01T02:30:41;17.60;99.90
22035;DHT22;11181;51.002;4.356;2023-08-01T02:33:08;17.60;99.90
22035;DHT22;11181;51.002;4.356;2023-08-01T02:35:35;17.50;99.90
22035;DHT22;11181;51.002;4.356;2023-08-01T02:38:02;17.50;99.90
22035;DHT22;11181;51.002;4.356;2023-08-01T02:40:29;17.50;99.90
22035;DHT22;11181;51.002;4.356;2023-08-01T02:42:56;17.50;99.90
22035;DHT22;11181;51.002;4.356;2023-08-01T02:45:23;17.50;99.90
22035;DHT22;11181;51.002;4.356;2023-08-01T02:47:52;17.50;99.90
22035;DHT22;11181;51.002;4.356;2023-08-01T02:50:18;17.50;99.90
22035;DHT22;11181;51.002;4.356;2023-08-01T02:52:45;17.50;99.90
22035;DHT22;11181;51.002;4.356;2023-08-01T02:55:12;17.50;99.90
22035;DHT22;11181;51.002;4.356;2023-08-01T02:57:39;17.50;99.90
22035;DHT22;11181;51.002;4.356;2023-08-01T03:00:07;17.60;99.90
22035;DHT22;11181;51.002;4.356;2023-08-01T03:02:37;17.60;99.90
22035;DHT22;11181;51.002;4.356;2023-08-01T03:05:07;17.70;99.90
22035;DHT22;11181;51.002;4.356;2023-08-01T03:07:34;17.60;99.90
22035;DHT22;11181;51.002;4.356;2023-08-01T03:10:01;17.60;99.90
22035;DHT22;11181;51.002;4.356;2023-08-01T03:12:28;17.70;99.90
22035;DHT22;11181;51.002;4.356;2023-08-01T03:14:54;17.70;99.90
22035;DHT22;11181;51.002;4.356;2023-08-01T03:17:21;17.80;99.90
22035;DHT22;11181;51.002;4.356;2023-08-01T03:19:48;17.80;99.90
22035;DHT22;11181;51.002;4.356;2023-08-01T03:22:17;17.80;99.90
22035;DHT22;11181;51.002;4.356;2023-08-01T03:24:44;17.90;99.90
22035;DHT22;11181;51.002;4.356;2023-08-01T03:27:10;17.80;99.90
22035;DHT22;11181;51.002;4.356;2023-08-01T03:29:37;17.80;99.90
22035;DHT22;11181;51.002;4.356;2023-08-01T03:32:05;17.90;99.90
22035;DHT22;11181;51.002;4.356;2023-08-01T03:34:32;17.80;99.90
22035;DHT22;11181;51.002;4.356;2023-08-01T03:36:59;17.90;99.90
22035;DHT22;11181;51.002;4.356;2023-08-01T03:39:27;17.80;99.90
22035;DHT22;11181;51.002;4.356;2023-08-01T03:41:54;17.80;99.90
22035;DHT22;11181;51.002;4.356;2023-08-01T03:44:20;17.80;99.90
22035;DHT22;11181;51.002;4.356;2023-08-01T03:46:48;17.90;99.90
22035;DHT22;11181;51.002;4.356;2023-08-01T03:49:15;17.80;99.90
22035;DHT22;11181;51.002;4.356;2023-08-01T03:51:43;17.70;99.90
22035;DHT22;11181;51.002;4.356;2023-08-01T03:54:10;17.70;99.90
22035;DHT22;11181;51.002;4.356;2023-08-01T03:56:38;17.60;99.90
22035;DHT22;11181;51.002;4.356;2023-08-01T03:59:08;17.50;99.90
22035;DHT22;11181;51.002;4.356;2023-08-01T04:01:35;17.50;99.90
22035;DHT22;11181;51.002;4.356;2023-08-01T04:04:02;17.40;99.90
22035;DHT22;11181;51.002;4.356;2023-08-01T04:06:29;17.50;99.90
22035;DHT22;11181;51.002;4.356;2023-08-01T04:08:56;17.40;99.90
22035;DHT22;11181;51.002;4.356;2023-08-01T04:11:23;17.30;99.90
22035;DHT22;11181;51.002;4.356;2023-08-01T04:13:51;17.30;99.90
22035;DHT22;11181;51.002;4.356;2023-08-01T04:16:18;17.30;99.90
22035;DHT22;11181;51.002;4.356;2023-08-01T04:18:45;17.30;99.90
22035;DHT22;11181;51.002;4.356;2023-08-01T04:21:13;17.30;99.90
22035;DHT22;11181;51.002;4.356;2023-08-01T04:23:40;17.30;99.90
22035;DHT22;11181;51.002;4.356;2023-08-01T04:26:07;17.20;99.90
22035;DHT22;11181;51.002;4.356;2023-08-01T04:28:34;17.30;99.90
22035;DHT22;11181;51.002;4.356;2023-08-01T04:31:03;17.30;99.90
22035;DHT22;11181;51.002;4.356;2023-08-01T04:33:29;17.30;99.90
22035;DHT22;11181;51.002;4.356;2023-08-01T04:35:56;17.30;99.90
22035;DHT22;11181;51.002;4.356;2023-08-01T04:38:23;17.30;99.90
22035;DHT22;11181;51.002;4.356;2023-08-01T04:40:50;17.30;99.90
22035;DHT22;11181;51.002;4.356;2023-08-01T04:43:17;17.30;99.90
22035;DHT22;11181;51.002;4.356;2023-08-01T04:45:44;17.30;99.90
22035;DHT22;11181;51.002;4.356;2023-08-01T04:48:13;17.30;99.90
22035;DHT22;11181;51.002;4.356;2023-08-01T04:50:39;17.40;99.90
22035;DHT22;11181;51.002;4.356;2023-08-01T04:53:06;17.30;99.90
22035;DHT22;11181;51.002;4.356;2023-08-01T04:55:33;17.30;99.90
22035;DHT22;11181;51.002;4.356;2023-08-01T04:58:00;17.30;99.90
22035;DHT22;11181;51.002;4.356;2023-08-01T05:00:27;17.20;99.90
22035;DHT22;11181;51.002;4.356;2023-08-01T05:02:54;17.20;99.90
22035;DHT22;11181;51.002;4.356;2023-08-01T05:05:22;17.20;99.90
22035;DHT22;11181;51.002;4.356;2023-08-01T05:07:49;17.20;99.90
22035;DHT22;11181;51.002;4.356;2023-08-01T05:10:16;17.20;99.90
22035;DHT22;11181;51.002;4.356;2023-08-01T05:12:42;17.20;99.90
22035;DHT22;11181;51.002;4.356;2023-08-01T05:15:09;17.20;99.90
22035;DHT22;11181;51.002;4.356;2023-08-01T05:17:38;17.10;99.90
22035;DHT22;11181;51.002;4.356;2023-08-01T05:20:06;17.10;99.90
22035;DHT22;11181;51.002;4.356;2023-08-01T05:22:35;17.20;99.90
22035;DHT22;11181;51.002;4.356;2023-08-01T05:25:02;17.20;99.90
22035;DHT22;11181;51.002;4.356;2023-08-01T05:27:30;17.20;99.90
22035;DHT22;11181;51.002;4.356;2023-08-01T05:29:57;17.20;99.90
22035;DHT22;11181;51.002;4.356;2023-08-01T05:32:24;17.30;99.90
22035;DHT22;11181;51.002;4.356;2023-08-01T05:34:51;17.30;99.90
22035;DHT22;11181;51.002;4.356;2023-08-01T05:37:17;17.30;99.90
22035;DHT22;11181;51.002;4.356;2023-08-01T05:39:45;17.40;99.90
22035;DHT22;11181;51.002;4.356;2023-08-01T05:42:12;17.40;99.90
22035;DHT22;11181;51.002;4.356;2023-08-01T05:44:39;17.50;99.90
22035;DHT22;11181;51.002;4.356;2023-08-01T05:47:06;17.50;99.90
22035;DHT22;11181;51.002;4.356;2023-08-01T05:49:33;17.50;99.90
22035;DHT22;11181;51.002;4.356;2023-08-01T05:52:00;17.40;99.90
22035;DHT22;11181;51.002;4.356;2023-08-01T05:54:27;17.50;99.90
22035;DHT22;11181;51.002;4.356;2023-08-01T05:56:55;17.50;99.90
22035;DHT22;11181;51.002;4.356;2023-08-01T05:59:22;17.60;99.90
22035;DHT22;11181;51.002;4.356;2023-08-01T06:01:49;17.60;99.90
22035;DHT22;11181;51.002;4.356;2023-08-01T06:04:16;17.60;99.90
22035;DHT22;11181;51.002;4.356;2023-08-01T06:06:42;17.70;99.90
22035;DHT22;11181;51.002;4.356;2023-08-01T06:09:09;17.80;99.90
22035;DHT22;11181;51.002;4.356;2023-08-01T06:11:36;17.90;99.90
22035;DHT22;11181;51.002;4.356;2023-08-01T06:14:04;17.90;99.90
22035;DHT22;11181;51.002;4.356;2023-08-01T06:16:31;17.90;99.90
22035;DHT22;11181;51.002;4.356;2023-08-01T06:18:58;17.90;99.90
22035;DHT22;11181;51.002;4.356;2023-08-01T06:21:26;17.90;99.90
22035;DHT22;11181;51.002;4.356;2023-08-01T06:23:53;17.90;99.90
22035;DHT22;11181;51.002;4.356;2023-08-01T06:26:19;17.70;99.90
22035;DHT22;11181;51.002;4.356;2023-08-01T06:28:46;17.60;99.90
22035;DHT22;11181;51.002;4.356;2023-08-01T06:31:14;17.60;99.90
22035;DHT22;11181;51.002;4.356;2023-08-01T06:33:41;17.70;99.90
22035;DHT22;11181;51.002;4.356;2023-08-01T06:36:08;17.70;99.90
22035;DHT22;11181;51.002;4.356;2023-08-01T06:38:35;17.70;99.90
22035;DHT22;11181;51.002;4.356;2023-08-01T06:41:02;17.80;99.90
22035;DHT22;11181;51.002;4.356;2023-08-01T06:43:29;17.80;99.90
22035;DHT22;11181;51.002;4.356;2023-08-01T06:45:56;17.90;99.90
22035;DHT22;11181;51.002;4.356;2023-08-01T06:48:24;18.00;99.90
22035;DHT22;11181;51.002;4.356;2023-08-01T06:50:51;18.10;99.90
22035;DHT22;11181;51.002;4.356;2023-08-01T06:53:18;18.10;99.90
22035;DHT22;11181;51.002;4.356;2023-08-01T06:55:45;18.10;99.90
22035;DHT22;11181;51.002;4.356;2023-08-01T06:58:12;18.10;99.90
22035;DHT22;11181;51.002;4.356;2023-08-01T07:00:39;18.20;99.90
22035;DHT22;11181;51.002;4.356;2023-08-01T07:03:06;18.20;99.90
22035;DHT22;11181;51.002;4.356;2023-08-01T07:05:34;18.20;99.90
22035;DHT22;11181;51.002;4.356;2023-08-01T07:08:01;18.30;99.90
22035;DHT22;11181;51.002;4.356;2023-08-01T07:10:28;18.40;99.90
22035;DHT22;11181;51.002;4.356;2023-08-01T07:12:55;18.40;99.90
22035;DHT22;11181;51.002;4.356;2023-08-01T07:15:22;18.40;99.90
22035;DHT22;11181;51.002;4.356;2023-08-01T07:17:49;18.40;99.90
22035;DHT22;11181;51.002;4.356;2023-08-01T07:20:16;18.60;99.90
22035;DHT22;11181;51.002;4.356;2023-08-01T07:22:44;18.70;99.90
22035;DHT22;11181;51.002;4.356;2023-08-01T07:25:11;18.80;99.90
22035;DHT22;11181;51.002;4.356;2023-08-01T07:27:38;18.80;99.90
22035;DHT22;11181;51.002;4.356;2023-08-01T07:30:06;18.70;99.90
22035;DHT22;11181;51.002;4.356;2023-08-01T07:32:33;18.60;99.90
22035;DHT22;11181;51.002;4.356;2023-08-01T07:35:00;18.50;99.90
22035;DHT22;11181;51.002;4.356;2023-08-01T07:37:27;18.60;99.90
22035;DHT22;11181;51.002;4.356;2023-08-01T07:39:56;18.70;99.90
22035;DHT22;11181;51.002;4.356;2023-08-01T07:42:23;18.90;99.90
22035;DHT22;11181;51.002;4.356;2023-08-01T07:44:50;19.00;99.90
22035;DHT22;11181;51.002;4.356;2023-08-01T07:47:17;19.00;99.90
22035;DHT22;11181;51.002;4.356;2023-08-01T07:49:43;18.90;99.90
22035;DHT22;11181;51.002;4.356;2023-08-01T07:52:10;18.80;99.90
22035;DHT22;11181;51.002;4.356;2023-08-01T07:54:37;18.70;99.90
22035;DHT22;11181;51.002;4.356;2023-08-01T07:57:06;18.70;99.90
22035;DHT22;11181;51.002;4.356;2023-08-01T07:59:33;18.90;99.90
22035;DHT22;11181;51.002;4.356;2023-08-01T08:02:00;19.10;99.90
22035;DHT22;11181;51.002;4.356;2023-08-01T08:04:27;19.10;99.90
22035;DHT22;11181;51.002;4.356;2023-08-01T08:06:54;19.00;99.90
22035;DHT22;11181;51.002;4.356;2023-08-01T08:09:25;19.00;99.90
22035;DHT22;11181;51.002;4.356;2023-08-01T08:11:52;19.00;99.90
22035;DHT22;11181;51.002;4.356;2023-08-01T08:14:20;19.30;99.90
22035;DHT22;11181;51.002;4.356;2023-08-01T08:16:48;19.60;99.90
22035;DHT22;11181;51.002;4.356;2023-08-01T08:19:15;19.80;99.90
22035;DHT22;11181;51.002;4.356;2023-08-01T08:21:42;20.00;99.90
22035;DHT22;11181;51.002;4.356;2023-08-01T08:24:09;20.20;99.90
22035;DHT22;11181;51.002;4.356;2023-08-01T08:26:36;20.40;99.90
22035;DHT22;11181;51.002;4.356;2023-08-01T08:29:05;20.50;99.90
22035;DHT22;11181;51.002;4.356;2023-08-01T08:31:33;20.40;99.90
22035;DHT22;11181;51.002;4.356;2023-08-01T08:34:01;20.40;99.90
22035;DHT22;11181;51.002;4.356;2023-08-01T08:36:28;20.20;99.90
22035;DHT22;11181;51.002;4.356;2023-08-01T08:38:55;20.20;99.90
22035;DHT22;11181;51.002;4.356;2023-08-01T08:41:25;20.00;99.90
22035;DHT22;11181;51.002;4.356;2023-08-01T08:43:55;19.90;99.90
22035;DHT22;11181;51.002;4.356;2023-08-01T08:46:24;20.10;99.90
22035;DHT22;11181;51.002;4.356;2023-08-01T08:48:56;20.10;99.90
22035;DHT22;11181;51.002;4.356;2023-08-01T08:51:25;20.30;99.90
22035;DHT22;11181;51.002;4.356;2023-08-01T08:53:53;20.40;99.90
22035;DHT22;11181;51.002;4.356;2023-08-01T08:56:20;20.60;99.90
22035;DHT22;11181;51.002;4.356;2023-08-01T08:58:49;20.60;99.90
22035;DHT22;11181;51.002;4.356;2023-08-01T09:01:17;20.60;99.90
22035;DHT22;11181;51.002;4.356;2023-08-01T09:03:44;20.50;99.90
22035;DHT22;11181;51.002;4.356;2023-08-01T09:06:15;20.80;99.90
22035;DHT22;11181;51.002;4.356;2023-08-01T09:08:49;21.00;99.90
22035;DHT22;11181;51.002;4.356;2023-08-01T09:11:16;21.30;99.90
22035;DHT22;11181;51.002;4.356;2023-08-01T09:13:43;21.50;99.90
22035;DHT22;11181;51.002;4.356;2023-08-01T09:16:10;21.70;99.90
22035;DHT22;11181;51.002;4.356;2023-08-01T09:18:47;21.80;99.90
22035;DHT22;11181;51.002;4.356;2023-08-01T09:21:17;21.60;99.90
22035;DHT22;11181;51.002;4.356;2023-08-01T09:23:44;21.50;99.90
22035;DHT22;11181;51.002;4.356;2023-08-01T09:26:15;21.50;99.90
22035;DHT22;11181;51.002;4.356;2023-08-01T09:28:42;21.60;99.90
22035;DHT22;11181;51.002;4.356;2023-08-01T09:31:10;21.70;99.90
22035;DHT22;11181;51.002;4.356;2023-08-01T09:33:38;21.70;99.90
22035;DHT22;11181;51.002;4.356;2023-08-01T09:36:07;21.70;99.90
22035;DHT22;11181;51.002;4.356;2023-08-01T09:38:36;21.70;99.90
22035;DHT22;11181;51.002;4.356;2023-08-01T09:41:03;21.80;99.90
22035;DHT22;11181;51.002;4.356;2023-08-01T09:43:33;21.80;99.90
22035;DHT22;11181;51.002;4.356;2023-08-01T09:46:02;21.80;99.90
22035;DHT22;11181;51.002;4.356;2023-08-01T09:48:30;22.00;99.90
22035;DHT22;11181;51.002;4.356;2023-08-01T09:51:07;22.10;99.90
22035;DHT22;11181;51.002;4.356;2023-08-01T09:53:37;22.20;99.90
22035;DHT22;11181;51.002;4.356;2023-08-01T09:56:14;22.40;99.90
22035;DHT22;11181;51.002;4.356;2023-08-01T09:58:54;22.60;99.90
22035;DHT22;11181;51.002;4.356;2023-08-01T10:01:22;22.70;99.90
22035;DHT22;11181;51.002;4.356;2023-08-01T10:03:51;22.80;99.90
22035;DHT22;11181;51.002;4.356;2023-08-01T10:06:19;22.70;99.90
22035;DHT22;11181;51.002;4.356;2023-08-01T10:08:47;22.80;99.90
22035;DHT22;11181;51.002;4.356;2023-08-01T10:11:16;23.00;99.90
22035;DHT22;11181;51.002;4.356;2023-08-01T10:13:43;23.00;99.90
22035;DHT22;11181;51.002;4.356;2023-08-01T10:16:12;23.00;99.90
22035;DHT22;11181;51.002;4.356;2023-08-01T10:18:40;22.90;99.90
22035;DHT22;11181;51.002;4.356;2023-08-01T10:21:08;22.70;99.90
22035;DHT22;11181;51.002;4.356;2023-08-01T10:23:35;22.60;99.90
22035;DHT22;11181;51.002;4.356;2023-08-01T10:26:04;22.50;99.90
22035;DHT22;11181;51.002;4.356;2023-08-01T10:28:32;22.40;99.90
22035;DHT22;11181;51.002;4.356;2023-08-01T10:31:09;22.50;99.90
22035;DHT22;11181;51.002;4.356;2023-08-01T10:33:38;22.60;99.90
22035;DHT22;11181;51.002;4.356;2023-08-01T10:36:15;22.40;99.90
22035;DHT22;11181;51.002;4.356;2023-08-01T10:38:47;22.20;99.90
22035;DHT22;11181;51.002;4.356;2023-08-01T10:41:19;22.00;99.90
22035;DHT22;11181;51.002;4.356;2023-08-01T10:43:46;21.90;99.90
22035;DHT22;11181;51.002;4.356;2023-08-01T10:46:13;22.10;99.90
22035;DHT22;11181;51.002;4.356;2023-08-01T10:48:49;22.20;99.90
22035;DHT22;11181;51.002;4.356;2023-08-01T10:51:17;22.10;99.90
22035;DHT22;11181;51.002;4.356;2023-08-01T10:53:44;22.00;99.90
22035;DHT22;11181;51.002;4.356;2023-08-01T10:56:18;21.80;99.90
22035;DHT22;11181;51.002;4.356;2023-08-01T10:58:46;21.50;99.90
22035;DHT22;11181;51.002;4.356;2023-08-01T11:01:13;21.20;99.90
22035;DHT22;11181;51.002;4.356;2023-08-01T11:03:40;21.20;99.90
22035;DHT22;11181;51.002;4.356;2023-08-01T11:06:08;21.10;99.90
22035;DHT22;11181;51.002;4.356;2023-08-01T11:08:36;21.00;99.90
22035;DHT22;11181;51.002;4.356;2023-08-01T11:11:05;21.00;99.90
22035;DHT22;11181;51.002;4.356;2023-08-01T11:13:33;21.00;99.90
22035;DHT22;11181;51.002;4.356;2023-08-01T11:16:02;21.10;99.90
22035;DHT22;11181;51.002;4.356;2023-08-01T11:18:30;20.90;99.90
22035;DHT22;11181;51.002;4.356;2023-08-01T11:20:57;20.70;99.90
22035;DHT22;11181;51.002;4.356;2023-08-01T11:23:29;20.50;99.90
22035;DHT22;11181;51.002;4.356;2023-08-01T11:25:56;20.60;99.90
22035;DHT22;11181;51.002;4.356;2023-08-01T11:28:23;20.80;99.90
22035;DHT22;11181;51.002;4.356;2023-08-01T11:30:50;20.90;99.90
22035;DHT22;11181;51.002;4.356;2023-08-01T11:33:18;21.20;99.90
22035;DHT22;11181;51.002;4.356;2023-08-01T11:35:46;21.50;99.90
22035;DHT22;11181;51.002;4.356;2023-08-01T11:38:13;21.60;99.90
22035;DHT22;11181;51.002;4.356;2023-08-01T11:40:41;21.70;99.90
22035;DHT22;11181;51.002;4.356;2023-08-01T11:43:08;21.90;99.90
22035;DHT22;11181;51.002;4.356;2023-08-01T11:45:35;22.00;99.90
22035;DHT22;11181;51.002;4.356;2023-08-01T11:48:03;22.10;99.90
22035;DHT22;11181;51.002;4.356;2023-08-01T11:50:29;22.00;99.90
22035;DHT22;11181;51.002;4.356;2023-08-01T11:52:56;22.00;99.90
22035;DHT22;11181;51.002;4.356;2023-08-01T11:55:26;22.10;99.90
22035;DHT22;11181;51.002;4.356;2023-08-01T11:57:56;22.20;99.90
22035;DHT22;11181;51.002;4.356;2023-08-01T12:00:25;22.40;99.90
22035;DHT22;11181;51.002;4.356;2023-08-01T12:03:03;22.60;99.90
22035;DHT22;11181;51.002;4.356;2023-08-01T12:05:30;22.80;99.90
22035;DHT22;11181;51.002;4.356;2023-08-01T12:08:08;23.00;99.90
22035;DHT22;11181;51.002;4.356;2023-08-01T12:10:37;23.00;99.90
22035;DHT22;11181;51.002;4.356;2023-08-01T12:13:05;23.10;99.90
22035;DHT22;11181;51.002;4.356;2023-08-01T12:15:32;23.40;99.90
22035;DHT22;11181;51.002;4.356;2023-08-01T12:17:59;23.30;99.90
22035;DHT22;11181;51.002;4.356;2023-08-01T12:20:26;23.10;99.90
22035;DHT22;11181;51.002;4.356;2023-08-01T12:22:53;23.00;99.90
22035;DHT22;11181;51.002;4.356;2023-08-01T12:25:20;22.80;99.90
22035;DHT22;11181;51.002;4.356;2023-08-01T12:27:47;22.80;99.90
22035;DHT22;11181;51.002;4.356;2023-08-01T12:30:15;23.00;99.90
22035;DHT22;11181;51.002;4.356;2023-08-01T12:32:42;23.40;99.90
22035;DHT22;11181;51.002;4.356;2023-08-01T12:35:10;23.60;99.90
22035;DHT22;11181;51.002;4.356;2023-08-01T12:37:37;23.70;99.90
22035;DHT22;11181;51.002;4.356;2023-08-01T12:40:05;23.40;99.90
22035;DHT22;11181;51.002;4.356;2023-08-01T12:42:32;23.10;99.90
22035;DHT22;11181;51.002;4.356;2023-08-01T12:44:59;23.10;99.90
22035;DHT22;11181;51.002;4.356;2023-08-01T12:47:28;23.20;99.90
22035;DHT22;11181;51.002;4.356;2023-08-01T12:49:55;23.20;99.90
22035;DHT22;11181;51.002;4.356;2023-08-01T12:52:23;23.20;99.90
22035;DHT22;11181;51.002;4.356;2023-08-01T12:54:50;23.10;99.90
22035;DHT22;11181;51.002;4.356;2023-08-01T12:57:17;23.10;99.90
22035;DHT22;11181;51.002;4.356;2023-08-01T12:59:44;23.00;99.90
22035;DHT22;11181;51.002;4.356;2023-08-01T13:02:12;23.00;99.90
22035;DHT22;11181;51.002;4.356;2023-08-01T13:04:41;22.90;99.90
22035;DHT22;11181;51.002;4.356;2023-08-01T13:07:08;23.10;99.90
22035;DHT22;11181;51.002;4.356;2023-08-01T13:09:34;23.20;99.90
22035;DHT22;11181;51.002;4.356;2023-08-01T13:12:02;23.30;99.90
22035;DHT22;11181;51.002;4.356;2023-08-01T13:14:29;23.30;99.90
22035;DHT22;11181;51.002;4.356;2023-08-01T13:16:55;23.20;99.90
22035;DHT22;11181;51.002;4.356;2023-08-01T13:19:23;23.10;99.90
22035;DHT22;11181;51.002;4.356;2023-08-01T13:21:52;23.00;99.90
22035;DHT22;11181;51.002;4.356;2023-08-01T13:24:19;22.90;99.90
22035;DHT22;11181;51.002;4.356;2023-08-01T13:26:46;22.60;99.90
22035;DHT22;11181;51.002;4.356;2023-08-01T13:29:12;22.40;99.90
22035;DHT22;11181;51.002;4.356;2023-08-01T13:31:40;22.30;99.90
22035;DHT22;11181;51.002;4.356;2023-08-01T13:34:07;22.30;99.90
22035;DHT22;11181;51.002;4.356;2023-08-01T13:36:34;22.30;99.90
22035;DHT22;11181;51.002;4.356;2023-08-01T13:39:03;22.20;99.90
22035;DHT22;11181;51.002;4.356;2023-08-01T13:41:30;22.20;99.90
22035;DHT22;11181;51.002;4.356;2023-08-01T13:43:58;22.20;99.90
22035;DHT22;11181;51.002;4.356;2023-08-01T13:46:25;22.00;99.90
22035;DHT22;11181;51.002;4.356;2023-08-01T13:48:52;21.90;99.90
22035;DHT22;11181;51.002;4.356;2023-08-01T13:51:19;21.80;99.90
22035;DHT22;11181;51.002;4.356;2023-08-01T13:53:46;21.70;99.90
22035;DHT22;11181;51.002;4.356;2023-08-01T13:56:14;21.70;99.90
22035;DHT22;11181;51.002;4.356;2023-08-01T13:58:41;21.80;99.90
22035;DHT22;11181;51.002;4.356;2023-08-01T14:01:09;22.00;99.90
22035;DHT22;11181;51.002;4.356;2023-08-01T14:03:37;22.10;99.90
22035;DHT22;11181;51.002;4.356;2023-08-01T14:06:05;22.10;99.90
22035;DHT22;11181;51.002;4.356;2023-08-01T14:08:33;22.20;99.90
22035;DHT22;11181;51.002;4.356;2023-08-01T14:11:02;22.00;99.90
22035;DHT22;11181;51.002;4.356;2023-08-01T14:13:31;22.10;99.90
22035;DHT22;11181;51.002;4.356;2023-08-01T14:15:58;22.00;99.90
22035;DHT22;11181;51.002;4.356;2023-08-01T14:18:24;22.10;99.90
22035;DHT22;11181;51.002;4.356;2023-08-01T14:20:51;21.90;99.90
22035;DHT22;11181;51.002;4.356;2023-08-01T14:23:19;21.80;99.90
22035;DHT22;11181;51.002;4.356;2023-08-01T14:25:46;21.40;99.90
22035;DHT22;11181;51.002;4.356;2023-08-01T14:28:13;21.30;99.90
22035;DHT22;11181;51.002;4.356;2023-08-01T14:30:41;21.30;99.90
22035;DHT22;11181;51.002;4.356;2023-08-01T14:33:09;21.20;99.90
22035;DHT22;11181;51.002;4.356;2023-08-01T14:35:36;21.10;99.90
22035;DHT22;11181;51.002;4.356;2023-08-01T14:38:04;21.10;99.90
22035;DHT22;11181;51.002;4.356;2023-08-01T14:40:31;21.20;99.90
22035;DHT22;11181;51.002;4.356;2023-08-01T14:42:59;21.30;99.90
22035;DHT22;11181;51.002;4.356;2023-08-01T14:45:26;21.40;99.90
22035;DHT22;11181;51.002;4.356;2023-08-01T14:47:55;21.40;99.90
22035;DHT22;11181;51.002;4.356;2023-08-01T14:50:22;21.40;99.90
22035;DHT22;11181;51.002;4.356;2023-08-01T14:52:49;21.30;99.90
22035;DHT22;11181;51.002;4.356;2023-08-01T14:55:15;21.40;99.90
22035;DHT22;11181;51.002;4.356;2023-08-01T14:57:42;21.50;99.90
22035;DHT22;11181;51.002;4.356;2023-08-01T15:00:10;21.50;99.90
22035;DHT22;11181;51.002;4.356;2023-08-01T15:02:37;21.60;99.90
22035;DHT22;11181;51.002;4.356;2023-08-01T15:05:06;21.60;99.90
22035;DHT22;11181;51.002;4.356;2023-08-01T15:07:33;21.60;99.90
22035;DHT22;11181;51.002;4.356;2023-08-01T15:10:00;21.50;99.90
22035;DHT22;11181;51.002;4.356;2023-08-01T15:12:27;21.60;99.90
22035;DHT22;11181;51.002;4.356;2023-08-01T15:14:54;21.60;99.90
22035;DHT22;11181;51.002;4.356;2023-08-01T15:17:21;21.50;99.90
22035;DHT22;11181;51.002;4.356;2023-08-01T15:19:48;21.50;99.90
22035;DHT22;11181;51.002;4.356;2023-08-01T15:22:17;21.40;99.90
22035;DHT22;11181;51.002;4.356;2023-08-01T15:24:44;21.30;99.90
22035;DHT22;11181;51.002;4.356;2023-08-01T15:27:12;21.30;99.90
22035;DHT22;11181;51.002;4.356;2023-08-01T15:29:39;21.20;99.90
22035;DHT22;11181;51.002;4.356;2023-08-01T15:32:07;21.20;99.90